Aktualizace27-Dec-2013 12:01pm 
 
:.
METEOSTANICE CHUDCICE (CZ), Milan Kolar

Vývoj počasí za 24 hodin



Temp/Humidity last 24 hours


Čas Teplota Rychlost větru Směr větru Vlhkost Tlak D隝
02:21 -8.1°C (17.4°F) 0.0km/h (0.0 mph) S 80% 1016.1hPa (30.01 inHg) 0.0mm (0.00 in.)
01:21 -9.2°C (15.4 °F) 0.0km/h (0.0 mph) NE 81% 1016.5hPa (30.02 inHg) 0.0mm (0.00 in.)
00:21 -9.7°C (14.5 °F) 0.0km/h (0.0 mph) NE 81% 1017.1hPa (30.03 inHg) 0.0mm (0.00 in.)
23:21 -9.4°C (15.1 °F) 0.0km/h (0.0 mph) NE 81% 1017.0hPa (30.03 inHg) 0.0mm (0.00 in.)
22:21 -9.1°C (15.6 °F) 0.0km/h (0.0 mph) ESE 80% 1017.3hPa (30.04 inHg) 0.0mm (0.00 in.)
21:21 -8.5°C (16.7 °F) 0.0km/h (0.0 mph) ESE 80% 1017.6hPa (30.05 inHg) 0.0mm (0.00 in.)
20:21 -7.4°C (18.7 °F) 0.0km/h (0.0 mph) ESE 80% 1017.7hPa (30.05 inHg) 0.0mm (0.00 in.)
19:21 -5.7°C (21.7 °F) 0.0km/h (0.0 mph) ESE 79% 1017.7hPa (30.05 inHg) 0.0mm (0.00 in.)
18:21 -3.2°C (26.2 °F) 0.0km/h (0.0 mph) ESE 77% 1017.7hPa (30.05 inHg) 0.0mm (0.00 in.)
17:21 -0.3°C (31.5 °F) 0.0km/h (0.0 mph) NNW 74% 1017.9hPa (30.06 inHg) 0.0mm (0.00 in.)
16:21 2.7°C (36.9 °F) 0.0km/h (0.0 mph) SSE 69% 1018.1hPa (30.06 inHg) 0.0mm (0.00 in.)
15:21 3.0°C (37.4 °F) 0.0km/h (0.0 mph) SE 68% 1018.6hPa (30.08 inHg) 0.0mm (0.00 in.)
14:21 3.9°C (39.0 °F) 0.0km/h (0.0 mph) SSE 68% 1019.1hPa (30.09 inHg) 0.0mm (0.00 in.)
13:21 3.5°C (38.3 °F) 0.0km/h (0.0 mph) SSE 69% 1019.7hPa (30.11 inHg) 0.0mm (0.00 in.)
12:21 2.2°C (36.0 °F) 0.0km/h (0.0 mph) W 75% 1020.3hPa (30.13 inHg) 0.0mm (0.00 in.)
11:21 -1.8°C (28.8 °F) 0.0km/h (0.0 mph) N 79% 1021.5hPa (30.16 inHg) 0.0mm (0.00 in.)
10:21 -4.2°C (24.4 °F) 0.0km/h (0.0 mph) N 79% 1021.9hPa (30.18 inHg) 0.0mm (0.00 in.)
09:21 -5.9°C (21.4 °F) 0.0km/h (0.0 mph) N 80% 1022.2hPa (30.19 inHg) 0.0mm (0.00 in.)
08:21 -11.7°C (10.9 °F) 0.0km/h (0.0 mph) N 81% 1022.7hPa (30.20 inHg) 0.0mm (0.00 in.)
07:21 -12.9°C (8.8 °F) 0.0km/h (0.0 mph) N 81% 1022.8hPa (30.20 inHg) 0.0mm (0.00 in.)
06:21 -12.4°C (9.7 °F) 0.0km/h (0.0 mph) N 81% 1023.0hPa (30.21 inHg) 0.0mm (0.00 in.)
05:21 -11.6°C (11.1 °F) 0.0km/h (0.0 mph) N 81% 1023.3hPa (30.22 inHg) 0.0mm (0.00 in.)
04:21 -10.1°C (13.8 °F) 0.0km/h (0.0 mph) N 81% 1023.5hPa (30.22 inHg) 0.0mm (0.00 in.)
03:21 -10.6°C (12.9 °F) 1.9km/h (1.2 mph) N 81% 1023.9hPa (30.24 inHg) 0.0mm (0.00 in.)

Barometer last 24 hours

Rain last 24 hours

Avg Windspeed last 24 hours

Š 2008-2017, Ing.Milan Kolář, Meteostanice WS 2350, La Crosse Technology